createdAt,value
2023-04-17T00:00:07.128Z,88.97
2023-04-17T00:01:05.523Z,89.08
2023-04-17T00:01:45.656Z,89.14
2023-04-17T00:02:26.677Z,89.06
2023-04-17T00:03:06.663Z,89.04
2023-04-17T00:03:46.576Z,88.77
2023-04-17T00:04:26.803Z,88.78
2023-04-17T00:05:07.508Z,88.61
2023-04-17T00:05:48.767Z,88.85
2023-04-17T00:06:28.474Z,88.35
2023-04-17T00:07:09.449Z,88.19
2023-04-17T00:07:51.544Z,88.71
2023-04-17T00:08:31.555Z,89.26
2023-04-17T00:09:12.650Z,88.48
2023-04-17T00:09:53.588Z,88.35
2023-04-17T00:10:33.443Z,88.38
2023-04-17T00:11:13.582Z,89.14
2023-04-17T00:11:53.457Z,89.30
2023-04-17T00:12:33.893Z,88.88
2023-04-17T00:13:14.464Z,89.27
2023-04-17T00:13:54.573Z,88.63
2023-04-17T00:14:35.491Z,89.36
2023-04-17T00:15:16.521Z,88.80
2023-04-17T00:15:56.474Z,89.32
2023-04-17T00:16:36.605Z,89.41
2023-04-17T00:17:17.539Z,89.35
2023-04-17T00:17:57.619Z,89.25
2023-04-17T00:18:37.441Z,89.89
2023-04-17T00:19:17.603Z,89.72
2023-04-17T00:19:57.451Z,89.16
2023-04-17T00:20:37.519Z,89.07
2023-04-17T00:21:18.473Z,88.94
2023-04-17T00:21:58.521Z,88.78
2023-04-17T00:22:40.441Z,88.52
2023-04-17T00:23:34.489Z,88.89
2023-04-17T00:24:28.476Z,88.88
2023-04-17T00:25:23.451Z,89.57
2023-04-17T00:26:17.466Z,89.79
2023-04-17T00:27:11.485Z,90.08
2023-04-17T00:27:58.444Z,89.87
2023-04-17T00:28:32.461Z,89.91
2023-04-17T00:29:19.443Z,89.54
2023-04-17T00:29:53.526Z,89.63
2023-04-17T00:30:40.444Z,89.07
2023-04-17T00:31:14.698Z,88.91
2023-04-17T00:32:01.468Z,89.27
2023-04-17T00:32:35.824Z,89.21
2023-04-17T00:33:22.454Z,89.12
2023-04-17T00:33:56.623Z,89.18
2023-04-17T00:34:44.408Z,89.31
2023-04-17T00:35:18.496Z,89.37
2023-04-17T00:36:05.460Z,90.21
2023-04-17T00:36:39.475Z,90.40
2023-04-17T00:37:26.459Z,89.96
2023-04-17T00:38:00.609Z,89.61
2023-04-17T00:38:48.480Z,89.81
2023-04-17T00:39:22.529Z,89.62
2023-04-17T00:40:10.402Z,89.30
2023-04-17T00:40:47.123Z,90.05
2023-04-17T00:41:34.465Z,89.84
2023-04-17T00:42:08.469Z,89.89
2023-04-17T00:42:59.442Z,89.72
2023-04-17T00:43:33.534Z,89.45
2023-04-17T00:44:13.451Z,89.70
2023-04-17T00:44:53.519Z,89.72
2023-04-17T00:45:34.411Z,89.31
2023-04-17T00:46:14.656Z,89.62
2023-04-17T00:46:54.406Z,89.57
2023-04-17T00:47:34.622Z,90.29
2023-04-17T00:48:15.408Z,90.32
2023-04-17T00:48:55.488Z,90.84
2023-04-17T00:49:36.452Z,91.18
2023-04-17T00:50:17.757Z,90.41
2023-04-17T00:50:58.509Z,90.43
2023-04-17T00:51:39.759Z,91.00
2023-04-17T00:52:23.434Z,90.66
2023-04-17T00:53:03.559Z,91.12
2023-04-17T00:53:44.423Z,90.73
2023-04-17T00:54:24.702Z,91.05
2023-04-17T00:55:06.467Z,90.35
2023-04-17T00:55:47.541Z,90.28
2023-04-17T00:56:28.433Z,90.42
2023-04-17T00:57:09.501Z,90.41
2023-04-17T00:57:50.437Z,90.26
2023-04-17T00:58:30.492Z,90.09
2023-04-17T00:59:13.652Z,89.92
2023-04-17T00:59:55.537Z,89.58
2023-04-17T01:00:35.405Z,89.58
2023-04-17T01:01:17.928Z,89.62
2023-04-17T01:01:59.430Z,89.15
2023-04-17T01:02:39.636Z,89.85
2023-04-17T01:03:20.704Z,89.77
2023-04-17T01:04:01.905Z,91.28
2023-04-17T01:04:44.406Z,92.29
2023-04-17T01:05:24.591Z,92.99
2023-04-17T01:06:05.394Z,92.45
2023-04-17T01:06:45.495Z,92.95
2023-04-17T01:07:25.426Z,92.66
2023-04-17T01:08:05.823Z,91.68
2023-04-17T01:08:50.386Z,91.52
2023-04-17T01:09:44.377Z,91.10
2023-04-17T01:10:38.424Z,90.78
2023-04-17T01:11:25.407Z,91.61
2023-04-17T01:11:59.519Z,92.62
2023-04-17T01:12:47.415Z,92.46
2023-04-17T01:13:21.503Z,92.93
2023-04-17T01:14:08.413Z,92.73
2023-04-17T01:14:42.514Z,92.34
2023-04-17T01:15:29.403Z,93.04
2023-04-17T01:16:03.426Z,92.53
2023-04-17T01:16:51.522Z,94.08
2023-04-17T01:17:28.400Z,93.85
2023-04-17T01:18:15.487Z,93.05
2023-04-17T01:18:49.585Z,92.34
2023-04-17T01:19:37.436Z,92.67
2023-04-17T01:20:12.632Z,92.57
2023-04-17T01:20:59.803Z,92.35
2023-04-17T01:21:33.532Z,92.43
2023-04-17T01:22:14.421Z,92.48
2023-04-17T01:22:58.526Z,92.66
2023-04-17T01:23:58.457Z,91.76
2023-04-17T01:24:38.545Z,92.75
2023-04-17T01:25:18.487Z,91.91
2023-04-17T01:25:58.468Z,92.69
2023-04-17T01:26:39.383Z,92.06
2023-04-17T01:27:29.431Z,91.53
2023-04-17T01:28:23.410Z,91.19
2023-04-17T01:29:17.411Z,91.70
2023-04-17T01:30:12.656Z,92.16
2023-04-17T01:31:06.464Z,92.73
2023-04-17T01:32:00.360Z,93.20
2023-04-17T01:32:48.416Z,93.06
2023-04-17T01:33:22.485Z,93.15
2023-04-17T01:34:09.379Z,93.34
2023-04-17T01:34:43.565Z,93.68
2023-04-17T01:35:30.401Z,94.15
2023-04-17T01:36:04.508Z,93.85
2023-04-17T01:36:51.394Z,93.43
2023-04-17T01:37:25.476Z,94.24
2023-04-17T01:38:14.084Z,94.36
2023-04-17T01:38:48.428Z,94.30
2023-04-17T01:39:35.352Z,94.66
2023-04-17T01:40:09.747Z,94.98
2023-04-17T01:40:56.382Z,95.83
2023-04-17T01:41:30.673Z,95.47
2023-04-17T01:42:17.330Z,95.00
2023-04-17T01:42:51.567Z,95.25
2023-04-17T01:43:31.467Z,95.75
2023-04-17T01:44:11.452Z,95.07
2023-04-17T01:44:52.373Z,95.29
2023-04-17T01:45:32.475Z,96.19
2023-04-17T01:46:13.489Z,95.42
2023-04-17T01:46:54.487Z,96.42
2023-04-17T01:47:34.405Z,96.39
2023-04-17T01:48:14.441Z,96.07
2023-04-17T01:48:54.353Z,96.30
2023-04-17T01:49:34.502Z,96.01
2023-04-17T01:50:18.403Z,95.48
2023-04-17T01:50:59.572Z,96.05
2023-04-17T01:51:39.344Z,95.71
2023-04-17T01:52:19.504Z,95.55
2023-04-17T01:52:59.509Z,96.09
2023-04-17T01:53:40.613Z,95.87
2023-04-17T01:54:22.436Z,95.05
2023-04-17T01:55:04.010Z,94.87
2023-04-17T01:55:44.369Z,94.79
2023-04-17T01:56:24.466Z,94.64
2023-04-17T01:57:04.378Z,94.93
2023-04-17T01:57:44.496Z,94.90
2023-04-17T01:58:26.620Z,95.10
2023-04-17T01:59:07.404Z,94.39
2023-04-17T01:59:47.468Z,94.35
2023-04-17T02:00:27.470Z,94.73
2023-04-17T02:01:07.355Z,94.50
2023-04-17T02:01:48.034Z,94.37
2023-04-17T02:02:50.458Z,94.09
2023-04-17T02:03:44.516Z,94.26
2023-04-17T02:04:38.454Z,94.25
2023-04-17T02:05:18.395Z,93.90
2023-04-17T02:06:00.512Z,93.70
2023-04-17T02:06:41.361Z,93.58
2023-04-17T02:07:22.884Z,93.41
2023-04-17T02:08:03.299Z,93.26
2023-04-17T02:08:43.522Z,92.81
2023-04-17T02:09:23.470Z,93.12
2023-04-17T02:10:03.469Z,92.49
2023-04-17T02:10:43.411Z,92.25
2023-04-17T02:11:24.475Z,92.25
2023-04-17T02:12:04.386Z,92.86
2023-04-17T02:12:44.467Z,92.12
2023-04-17T02:13:24.359Z,91.90
2023-04-17T02:14:05.486Z,91.81
2023-04-17T02:14:45.351Z,91.82
2023-04-17T02:15:25.444Z,92.35
2023-04-17T02:16:05.390Z,91.76
2023-04-17T02:16:48.322Z,91.61
2023-04-17T02:17:29.628Z,91.77
2023-04-17T02:18:10.420Z,91.25
2023-04-17T02:18:51.425Z,91.28
2023-04-17T02:19:31.458Z,91.03
2023-04-17T02:20:15.380Z,90.44
2023-04-17T02:20:55.605Z,90.69
2023-04-17T02:21:35.379Z,91.22
2023-04-17T02:22:15.795Z,90.68
2023-04-17T02:22:57.455Z,91.19
2023-04-17T02:23:37.597Z,91.69
2023-04-17T02:24:17.344Z,91.34
2023-04-17T02:24:57.415Z,92.09
2023-04-17T02:25:38.618Z,92.60
2023-04-17T02:26:18.475Z,92.89
2023-04-17T02:26:59.349Z,93.05
2023-04-17T02:27:39.661Z,93.55
2023-04-17T02:28:19.301Z,94.13
2023-04-17T02:28:59.381Z,94.06
2023-04-17T02:29:40.360Z,93.60
2023-04-17T02:30:20.549Z,94.09
2023-04-17T02:31:02.622Z,94.12
2023-04-17T02:31:42.432Z,93.77
2023-04-17T02:32:24.444Z,94.32
2023-04-17T02:33:05.499Z,94.29
2023-04-17T02:33:46.314Z,94.04
2023-04-17T02:34:26.428Z,93.41
2023-04-17T02:35:07.300Z,93.17
2023-04-17T02:35:47.447Z,93.33
2023-04-17T02:36:28.421Z,93.84
2023-04-17T02:37:09.421Z,93.58
2023-04-17T02:37:49.327Z,93.59
2023-04-17T02:38:30.494Z,93.45
2023-04-17T02:39:12.598Z,93.37
2023-04-17T02:39:53.475Z,93.06
2023-04-17T02:40:34.348Z,93.37
2023-04-17T02:41:14.401Z,93.43
2023-04-17T02:41:54.304Z,94.04
2023-04-17T02:42:34.403Z,93.67
2023-04-17T02:43:15.305Z,94.39
2023-04-17T02:43:56.737Z,94.48
2023-04-17T02:44:36.295Z,94.79
2023-04-17T02:45:17.380Z,94.94
2023-04-17T02:45:58.328Z,95.35
2023-04-17T02:46:38.554Z,94.86
2023-04-17T02:47:19.346Z,95.01
2023-04-17T02:47:59.452Z,95.66
2023-04-17T02:48:39.407Z,96.48
2023-04-17T02:49:19.356Z,96.31
2023-04-17T02:50:01.361Z,96.62
2023-04-17T02:50:41.684Z,96.88
2023-04-17T02:51:22.291Z,96.77
2023-04-17T02:52:02.393Z,97.58
2023-04-17T02:52:42.331Z,97.57
2023-04-17T02:53:22.407Z,97.00
2023-04-17T02:54:02.259Z,97.26
2023-04-17T02:54:42.667Z,96.96
2023-04-17T02:55:23.342Z,97.84
2023-04-17T02:56:04.430Z,97.12
2023-04-17T02:56:45.366Z,98.16
2023-04-17T02:57:25.472Z,98.26
2023-04-17T02:58:05.313Z,98.21
2023-04-17T02:58:45.571Z,98.43
2023-04-17T02:59:26.344Z,97.31
2023-04-17T03:00:12.794Z,97.33
2023-04-17T03:00:54.511Z,96.85
2023-04-17T03:01:37.687Z,97.22
2023-04-17T03:02:18.406Z,97.26
2023-04-17T03:02:58.445Z,97.54
2023-04-17T03:03:41.637Z,97.72
2023-04-17T03:04:22.469Z,98.17
2023-04-17T03:05:02.562Z,97.70
2023-04-17T03:05:42.452Z,97.66
2023-04-17T03:06:23.291Z,97.62
2023-04-17T03:07:04.061Z,97.42
2023-04-17T03:07:45.288Z,97.20
2023-04-17T03:08:25.404Z,97.05
2023-04-17T03:09:05.262Z,97.40
2023-04-17T03:09:47.542Z,97.63
2023-04-17T03:10:27.314Z,97.61
2023-04-17T03:11:08.370Z,96.99
2023-04-17T03:11:50.323Z,97.16
2023-04-17T03:12:30.364Z,96.97
2023-04-17T03:13:11.286Z,97.19
2023-04-17T03:13:51.503Z,96.69
2023-04-17T03:14:32.340Z,97.52
2023-04-17T03:15:13.399Z,97.43
2023-04-17T03:15:54.362Z,97.85
2023-04-17T03:16:34.443Z,97.81
2023-04-17T03:17:15.280Z,97.30
2023-04-17T03:17:55.423Z,97.37
2023-04-17T03:18:35.277Z,97.70
2023-04-17T03:19:15.400Z,97.84
2023-04-17T03:19:56.291Z,98.21
2023-04-17T03:20:36.389Z,98.75
2023-04-17T03:21:16.309Z,98.47
2023-04-17T03:21:56.350Z,98.52
2023-04-17T03:22:36.275Z,98.82
2023-04-17T03:23:16.460Z,98.78
2023-04-17T03:23:57.383Z,99.13
2023-04-17T03:24:37.332Z,98.63
2023-04-17T03:25:18.308Z,98.79
2023-04-17T03:25:58.365Z,99.73
2023-04-17T03:26:38.294Z,99.08
2023-04-17T03:27:24.258Z,99.14
2023-04-17T03:28:05.321Z,98.88
2023-04-17T03:28:45.365Z,98.96
2023-04-17T03:29:25.258Z,99.18
2023-04-17T03:30:05.361Z,98.66
2023-04-17T03:30:45.408Z,98.93
2023-04-17T03:31:25.849Z,99.09
2023-04-17T03:32:07.375Z,99.25
2023-04-17T03:32:47.425Z,99.03
2023-04-17T03:33:27.292Z,99.24
2023-04-17T03:34:07.406Z,99.62
2023-04-17T03:34:47.252Z,98.77
2023-04-17T03:35:21.197Z,98.13
2023-04-17T03:36:09.374Z,98.62
2023-04-17T03:36:43.059Z,98.13
2023-04-17T03:37:30.268Z,98.58
2023-04-17T03:38:04.004Z,98.74
2023-04-17T03:38:51.279Z,97.96
2023-04-17T03:39:25.057Z,98.16
2023-04-17T03:40:13.260Z,98.84
2023-04-17T03:40:47.048Z,99.15
2023-04-17T03:41:36.297Z,99.66
2023-04-17T03:42:14.424Z,99.56
2023-04-17T03:42:55.256Z,98.57
2023-04-17T03:43:29.357Z,99.28
2023-04-17T03:44:04.723Z,98.82
2023-04-17T03:44:44.271Z,98.21
2023-04-17T03:45:18.332Z,98.52
2023-04-17T03:45:52.071Z,98.23
2023-04-17T03:46:32.485Z,97.75
2023-04-17T03:47:06.374Z,97.53
2023-04-17T03:47:41.764Z,98.08
2023-04-17T03:48:22.304Z,97.00
2023-04-17T03:48:56.343Z,97.77
2023-04-17T03:49:29.978Z,98.10
2023-04-17T03:50:11.224Z,97.69
2023-04-17T03:50:45.416Z,98.11
2023-04-17T03:51:20.069Z,97.25
2023-04-17T03:52:00.230Z,97.26
2023-04-17T03:52:34.316Z,96.46
2023-04-17T03:53:08.020Z,97.35
2023-04-17T03:53:48.330Z,96.91
2023-04-17T03:54:22.387Z,96.60
2023-04-17T03:54:58.147Z,95.74
2023-04-17T03:55:39.223Z,95.86
2023-04-17T03:56:13.371Z,95.75
2023-04-17T03:56:47.029Z,95.68
2023-04-17T03:57:27.225Z,96.05
2023-04-17T03:58:01.524Z,96.02
2023-04-17T03:58:36.110Z,96.14
2023-04-17T03:59:16.247Z,95.85
2023-04-17T03:59:50.502Z,95.86
2023-04-17T04:00:24.802Z,95.78
2023-04-17T04:01:08.290Z,95.62
2023-04-17T04:01:43.816Z,95.86
2023-04-17T04:02:20.125Z,95.70
2023-04-17T04:03:00.321Z,95.95
2023-04-17T04:03:35.745Z,95.56
2023-04-17T04:04:10.091Z,95.31
2023-04-17T04:04:50.467Z,96.22
2023-04-17T04:05:24.447Z,96.06
2023-04-17T04:05:59.029Z,96.49
2023-04-17T04:06:39.224Z,96.63
2023-04-17T04:07:13.400Z,97.53
2023-04-17T04:07:47.017Z,96.79
2023-04-17T04:08:28.250Z,96.77
2023-04-17T04:09:02.372Z,97.33
2023-04-17T04:09:36.171Z,98.13
2023-04-17T04:10:17.229Z,98.31
2023-04-17T04:10:51.264Z,98.61
2023-04-17T04:11:25.010Z,98.42
2023-04-17T04:12:05.206Z,98.17
2023-04-17T04:12:39.383Z,98.88
2023-04-17T04:13:13.360Z,98.62
2023-04-17T04:13:54.229Z,97.98
2023-04-17T04:14:28.405Z,99.35
2023-04-17T04:15:02.189Z,99.18
2023-04-17T04:15:42.317Z,98.89
2023-04-17T04:16:16.764Z,98.86
2023-04-17T04:16:51.047Z,99.17
2023-04-17T04:17:32.269Z,99.79
2023-04-17T04:18:06.621Z,99.47
2023-04-17T04:18:40.976Z,99.06
2023-04-17T04:19:22.240Z,100.00
2023-04-17T04:19:56.343Z,99.14
2023-04-17T04:20:30.138Z,98.74
2023-04-17T04:21:12.357Z,100.00
2023-04-17T04:21:46.450Z,99.90
2023-04-17T04:22:21.253Z,99.04
2023-04-17T04:23:04.232Z,99.00
2023-04-17T04:23:40.201Z,99.80
2023-04-17T04:24:14.373Z,99.96
2023-04-17T04:24:56.253Z,100.00
2023-04-17T04:25:32.446Z,100.00
2023-04-17T04:26:06.104Z,100.00
2023-04-17T04:26:50.235Z,100.00
2023-04-17T04:27:24.302Z,100.00
2023-04-17T04:27:57.956Z,100.00
2023-04-17T04:28:38.335Z,99.69
2023-04-17T04:29:14.010Z,100.00
2023-04-17T04:29:49.819Z,100.00
2023-04-17T04:30:34.200Z,100.00
2023-04-17T04:31:08.436Z,100.00
2023-04-17T04:31:42.584Z,100.00
2023-04-17T04:32:23.276Z,100.00
2023-04-17T04:32:57.590Z,100.00
2023-04-17T04:33:31.999Z,100.00
2023-04-17T04:34:13.230Z,100.00
2023-04-17T04:34:47.428Z,100.00
2023-04-17T04:35:22.309Z,100.00
2023-04-17T04:36:03.226Z,100.00
2023-04-17T04:36:41.839Z,100.00
2023-04-17T04:37:16.135Z,100.00
2023-04-17T04:37:56.270Z,100.00
2023-04-17T04:38:33.054Z,100.00
2023-04-17T04:39:06.974Z,100.00
2023-04-17T04:39:50.261Z,100.00
2023-04-17T04:40:24.638Z,100.00
2023-04-17T04:41:06.284Z,100.00
2023-04-17T04:41:52.175Z,100.00
2023-04-17T04:42:27.137Z,100.00
2023-04-17T04:43:08.499Z,100.00
2023-04-17T04:43:48.313Z,100.00
2023-04-17T04:44:29.176Z,100.00
2023-04-17T04:45:13.684Z,100.00
2023-04-17T04:45:54.185Z,100.00
2023-04-17T04:46:34.319Z,100.00
2023-04-17T04:47:14.202Z,100.00
2023-04-17T04:47:55.409Z,100.00
2023-04-17T04:48:35.206Z,100.00
2023-04-17T04:49:15.273Z,100.00
2023-04-17T04:49:55.159Z,100.00
2023-04-17T04:50:35.263Z,100.00
2023-04-17T04:51:15.202Z,100.00
2023-04-17T04:51:56.669Z,100.00
2023-04-17T04:52:37.174Z,100.00
2023-04-17T04:53:17.383Z,100.00
2023-04-17T04:53:57.277Z,100.00
2023-04-17T04:54:37.247Z,100.00
2023-04-17T04:55:17.142Z,100.00
2023-04-17T04:55:58.324Z,100.00
2023-04-17T04:56:39.151Z,100.00
2023-04-17T04:57:20.264Z,100.00
2023-04-17T04:58:01.198Z,100.00
2023-04-17T04:58:41.284Z,100.00
2023-04-17T04:59:22.180Z,100.00
2023-04-17T05:00:06.388Z,100.00
2023-04-17T05:00:47.230Z,100.00
2023-04-17T05:01:28.007Z,100.00
2023-04-17T05:02:11.211Z,100.00
2023-04-17T05:02:52.396Z,100.00
2023-04-17T05:03:33.450Z,100.00
2023-04-17T05:04:14.472Z,100.00
2023-04-17T05:04:56.294Z,100.00
2023-04-17T05:05:37.655Z,100.00
2023-04-17T05:06:28.280Z,100.00
2023-04-17T05:07:04.889Z,100.00
2023-04-17T05:07:53.165Z,100.00
2023-04-17T05:08:28.348Z,100.00
2023-04-17T05:09:16.927Z,100.00
2023-04-17T05:09:52.257Z,100.00
2023-04-17T05:10:33.171Z,100.00
2023-04-17T05:11:19.265Z,100.00
2023-04-17T05:12:01.381Z,100.00
2023-04-17T05:12:42.678Z,100.00
2023-04-17T05:13:24.157Z,100.00
2023-04-17T05:14:06.461Z,100.00
2023-04-17T05:14:47.361Z,100.00
2023-04-17T05:15:27.885Z,100.00
2023-04-17T05:16:14.246Z,100.00
2023-04-17T05:16:55.840Z,100.00
2023-04-17T05:17:37.135Z,100.00
2023-04-17T05:18:17.262Z,100.00
2023-04-17T05:18:58.200Z,100.00
2023-04-17T05:19:43.262Z,100.00
2023-04-17T05:20:25.257Z,100.00
2023-04-17T05:21:06.405Z,100.00
2023-04-17T05:21:48.173Z,100.00
2023-04-17T05:22:29.864Z,100.00
2023-04-17T05:23:14.358Z,100.00
2023-04-17T05:23:55.594Z,100.00
2023-04-17T05:24:38.525Z,100.00
2023-04-17T05:25:20.790Z,100.00
2023-04-17T05:26:03.146Z,100.00
2023-04-17T05:26:44.342Z,100.00
2023-04-17T05:27:24.182Z,100.00
2023-04-17T05:28:05.860Z,100.00
2023-04-17T05:28:52.147Z,100.00
2023-04-17T05:29:33.637Z,100.00
2023-04-17T05:30:18.200Z,100.00
2023-04-17T05:30:59.191Z,100.00
2023-04-17T05:31:40.174Z,100.00
2023-04-17T05:32:20.316Z,100.00
2023-04-17T05:33:02.258Z,100.00
2023-04-17T05:33:42.189Z,100.00
2023-04-17T05:34:30.240Z,100.00
2023-04-17T05:35:04.885Z,100.00
2023-04-17T05:35:56.088Z,100.00
2023-04-17T05:36:31.615Z,100.00
2023-04-17T05:37:19.165Z,100.00
2023-04-17T05:37:55.260Z,100.00
2023-04-17T05:38:38.168Z,100.00
2023-04-17T05:39:19.342Z,100.00
2023-04-17T05:39:59.200Z,100.00
2023-04-17T05:40:40.209Z,100.00
2023-04-17T05:41:29.337Z,100.00
2023-04-17T05:42:10.356Z,100.00
2023-04-17T05:42:57.474Z,100.00
2023-04-17T05:43:31.977Z,100.00
2023-04-17T05:44:15.142Z,100.00
2023-04-17T05:44:50.264Z,100.00
2023-04-17T05:45:27.188Z,100.00
2023-04-17T05:46:10.153Z,100.00
2023-04-17T05:46:44.301Z,100.00
2023-04-17T05:47:18.194Z,100.00
2023-04-17T05:48:00.177Z,100.00
2023-04-17T05:48:36.610Z,100.00
2023-04-17T05:49:14.216Z,100.00
2023-04-17T05:49:58.283Z,100.00
2023-04-17T05:50:34.319Z,100.00
2023-04-17T05:51:07.889Z,100.00
2023-04-17T05:51:48.116Z,100.00
2023-04-17T05:52:23.356Z,100.00
2023-04-17T05:52:57.923Z,100.00
2023-04-17T05:53:39.316Z,100.00
2023-04-17T05:54:13.219Z,100.00
2023-04-17T05:54:46.857Z,100.00
2023-04-17T05:55:28.229Z,100.00
2023-04-17T05:56:03.411Z,100.00
2023-04-17T05:56:37.880Z,100.00
2023-04-17T05:57:19.116Z,100.00
2023-04-17T05:57:55.227Z,100.00
2023-04-17T05:58:31.508Z,100.00
2023-04-17T05:59:13.678Z,100.00
2023-04-17T05:59:55.184Z,100.00
2023-04-17T06:00:37.175Z,100.00
2023-04-17T06:01:42.937Z,100.00
2023-04-17T06:03:03.444Z,100.00
2023-04-17T06:03:57.453Z,100.00
2023-04-17T06:04:54.433Z,100.00
2023-04-17T06:05:49.251Z,100.00
2023-04-17T06:06:44.166Z,100.00
2023-04-17T06:07:38.196Z,100.00
2023-04-17T06:08:32.106Z,100.00
2023-04-17T06:09:26.430Z,100.00
2023-04-17T06:10:22.143Z,100.00
2023-04-17T06:11:14.819Z,100.00
2023-04-17T06:11:49.179Z,100.00
2023-04-17T06:12:37.177Z,100.00
2023-04-17T06:13:12.264Z,100.00
2023-04-17T06:13:59.247Z,100.00
2023-04-17T06:14:34.366Z,100.00
2023-04-17T06:15:21.085Z,100.00
2023-04-17T06:15:56.224Z,100.00
2023-04-17T06:16:37.141Z,100.00
2023-04-17T06:17:17.750Z,100.00
2023-04-17T06:18:00.238Z,100.00
2023-04-17T06:18:41.437Z,100.00
2023-04-17T06:19:25.984Z,100.00
2023-04-17T06:20:11.233Z,100.00
2023-04-17T06:20:52.092Z,100.00
2023-04-17T06:21:33.178Z,100.00
2023-04-17T06:22:14.178Z,100.00
2023-04-17T06:22:58.469Z,100.00
2023-04-17T06:23:41.078Z,100.00
2023-04-17T06:24:21.300Z,100.00
2023-04-17T06:25:01.102Z,100.00
2023-04-17T06:25:42.224Z,100.00
2023-04-17T06:26:23.073Z,100.00
2023-04-17T06:27:04.747Z,100.00
2023-04-17T06:27:48.076Z,100.00
2023-04-17T06:28:28.239Z,100.00
2023-04-17T06:29:10.254Z,100.00
2023-04-17T06:29:51.257Z,100.00
2023-04-17T06:30:31.099Z,100.00
2023-04-17T06:31:11.201Z,100.00
2023-04-17T06:31:53.086Z,100.00
2023-04-17T06:32:33.336Z,100.00
2023-04-17T06:33:14.157Z,100.00
2023-04-17T06:33:55.186Z,100.00
2023-04-17T06:34:35.094Z,100.00
2023-04-17T06:35:19.158Z,100.00
2023-04-17T06:36:00.104Z,100.00
2023-04-17T06:36:41.185Z,100.00
2023-04-17T06:37:21.098Z,100.00
2023-04-17T06:38:02.493Z,100.00
2023-04-17T06:38:43.162Z,100.00
2023-04-17T06:39:23.471Z,100.00
2023-04-17T06:40:04.066Z,100.00
2023-04-17T06:40:46.420Z,100.00
2023-04-17T06:41:27.101Z,100.00
2023-04-17T06:42:07.322Z,100.00
2023-04-17T06:42:47.066Z,100.00
2023-04-17T06:43:27.139Z,100.00
2023-04-17T06:44:08.140Z,100.00
2023-04-17T06:44:49.148Z,100.00
2023-04-17T06:45:29.109Z,100.00
2023-04-17T06:46:09.252Z,100.00
2023-04-17T06:46:49.181Z,100.00
2023-04-17T06:47:29.212Z,100.00
2023-04-17T06:48:10.032Z,100.00
2023-04-17T06:48:52.174Z,100.00
2023-04-17T06:49:33.135Z,100.00
2023-04-17T06:50:14.182Z,100.00
2023-04-17T06:50:55.064Z,100.00
2023-04-17T06:51:35.117Z,100.00
2023-04-17T06:52:16.076Z,100.00
2023-04-17T06:52:56.164Z,100.00
2023-04-17T06:53:36.043Z,100.00
2023-04-17T06:54:16.114Z,100.00
2023-04-17T06:54:56.084Z,100.00
2023-04-17T06:55:36.236Z,100.00
2023-04-17T06:56:17.051Z,100.00
2023-04-17T06:56:57.165Z,100.00
2023-04-17T06:57:37.059Z,100.00
2023-04-17T06:58:17.118Z,100.00
2023-04-17T06:59:00.381Z,100.00
2023-04-17T06:59:41.125Z,100.00
2023-04-17T07:00:23.131Z,100.00
2023-04-17T07:01:03.143Z,100.00
2023-04-17T07:01:44.067Z,100.00
2023-04-17T07:02:24.346Z,100.00
2023-04-17T07:03:05.163Z,100.00
2023-04-17T07:03:49.353Z,100.00
2023-04-17T07:04:30.075Z,100.00
2023-04-17T07:05:13.266Z,100.00
2023-04-17T07:05:53.049Z,100.00
2023-04-17T07:06:36.394Z,100.00
2023-04-17T07:07:18.006Z,100.00
2023-04-17T07:07:58.153Z,100.00
2023-04-17T07:08:39.074Z,100.00
2023-04-17T07:09:19.206Z,100.00
2023-04-17T07:10:00.073Z,100.00
2023-04-17T07:10:40.166Z,100.00
2023-04-17T07:11:20.059Z,100.00
2023-04-17T07:12:01.213Z,100.00
2023-04-17T07:12:42.035Z,100.00
2023-04-17T07:13:22.169Z,100.00
2023-04-17T07:14:02.027Z,100.00
2023-04-17T07:14:36.092Z,100.00
2023-04-17T07:15:24.099Z,100.00
2023-04-17T07:15:59.402Z,100.00
2023-04-17T07:16:40.080Z,100.00
2023-04-17T07:17:14.096Z,100.00
2023-04-17T07:17:47.881Z,100.00
2023-04-17T07:18:29.126Z,100.00
2023-04-17T07:19:03.123Z,100.00
2023-04-17T07:19:37.453Z,100.00
2023-04-17T07:20:17.999Z,100.00
2023-04-17T07:20:52.106Z,100.00
2023-04-17T07:21:26.856Z,100.00
2023-04-17T07:22:07.026Z,100.00
2023-04-17T07:22:41.463Z,100.00
2023-04-17T07:23:16.045Z,100.00
2023-04-17T07:23:57.030Z,100.00
2023-04-17T07:24:34.794Z,100.00
2023-04-17T07:25:08.993Z,100.00
2023-04-17T07:25:50.023Z,100.00
2023-04-17T07:26:24.107Z,100.00
2023-04-17T07:26:57.881Z,100.00
2023-04-17T07:27:39.025Z,100.00
2023-04-17T07:28:14.106Z,100.00
2023-04-17T07:28:48.396Z,100.00
2023-04-17T07:29:31.502Z,100.00
2023-04-17T07:30:05.219Z,100.00
2023-04-17T07:30:38.792Z,100.00
2023-04-17T07:31:20.060Z,100.00
2023-04-17T07:31:54.221Z,100.00
2023-04-17T07:32:28.420Z,100.00
2023-04-17T07:33:09.105Z,100.00
2023-04-17T07:33:43.149Z,100.00
2023-04-17T07:34:17.232Z,100.00
2023-04-17T07:34:58.010Z,100.00
2023-04-17T07:35:32.133Z,100.00
2023-04-17T07:36:08.364Z,100.00
2023-04-17T07:36:48.003Z,100.00
2023-04-17T07:37:22.081Z,100.00
2023-04-17T07:37:58.069Z,100.00
2023-04-17T07:38:43.006Z,100.00
2023-04-17T07:39:17.062Z,100.00
2023-04-17T07:39:50.879Z,100.00
2023-04-17T07:40:32.022Z,100.00
2023-04-17T07:41:06.148Z,100.00
2023-04-17T07:41:39.755Z,100.00
2023-04-17T07:42:20.999Z,100.00
2023-04-17T07:42:56.297Z,100.00
2023-04-17T07:43:29.909Z,100.00
2023-04-17T07:44:12.043Z,100.00
2023-04-17T07:44:46.080Z,100.00
2023-04-17T07:45:19.820Z,100.00
2023-04-17T07:46:02.024Z,100.00
2023-04-17T07:46:36.168Z,100.00
2023-04-17T07:47:09.820Z,100.00
2023-04-17T07:47:50.047Z,100.00
2023-04-17T07:48:25.214Z,100.00
2023-04-17T07:49:01.712Z,100.00
2023-04-17T07:49:43.095Z,100.00
2023-04-17T07:50:17.121Z,100.00
2023-04-17T07:50:51.155Z,100.00
2023-04-17T07:51:32.051Z,100.00
2023-04-17T07:52:06.226Z,100.00
2023-04-17T07:52:39.757Z,99.78
2023-04-17T07:53:21.056Z,99.98
2023-04-17T07:53:55.402Z,99.72
2023-04-17T07:54:28.723Z,99.80
2023-04-17T07:55:09.031Z,99.39
2023-04-17T07:55:43.293Z,99.77
2023-04-17T07:56:17.547Z,99.81
2023-04-17T07:56:59.062Z,99.66
2023-04-17T07:57:33.040Z,99.39
2023-04-17T07:58:06.786Z,99.35
2023-04-17T07:58:49.001Z,99.00
2023-04-17T07:59:23.096Z,98.11
2023-04-17T07:59:57.182Z,98.62
2023-04-17T08:00:38.138Z,98.80
2023-04-17T08:01:12.161Z,98.43
2023-04-17T08:01:45.812Z,99.42
2023-04-17T08:02:49.144Z,98.56
2023-04-17T08:03:29.869Z,99.01
2023-04-17T08:04:10.203Z,98.79
2023-04-17T08:04:52.209Z,98.46
2023-04-17T08:05:33.013Z,99.03
2023-04-17T08:06:13.012Z,98.61
2023-04-17T08:06:47.200Z,98.26
2023-04-17T08:07:20.783Z,98.62
2023-04-17T08:08:00.972Z,98.09
2023-04-17T08:08:35.146Z,98.26
2023-04-17T08:09:09.163Z,97.98
2023-04-17T08:09:48.989Z,97.20
2023-04-17T08:10:23.060Z,97.65
2023-04-17T08:10:56.693Z,97.48
2023-04-17T08:11:46.019Z,97.16
2023-04-17T08:12:30.334Z,97.65
2023-04-17T08:13:03.703Z,96.51
2023-04-17T08:13:43.998Z,96.83
2023-04-17T08:14:20.255Z,96.25
2023-04-17T08:14:53.716Z,96.39
2023-04-17T08:15:34.091Z,95.60
2023-04-17T08:16:08.127Z,96.05
2023-04-17T08:16:48.002Z,95.91
2023-04-17T08:17:30.254Z,95.68
2023-04-17T08:18:11.051Z,95.53
2023-04-17T08:18:51.030Z,95.22
2023-04-17T08:19:30.966Z,94.99
2023-04-17T08:20:13.577Z,94.72
2023-04-17T08:20:53.996Z,94.39
2023-04-17T08:21:34.103Z,94.59
2023-04-17T08:22:15.023Z,94.75
2023-04-17T08:22:55.222Z,95.03
2023-04-17T08:23:34.981Z,94.84
2023-04-17T08:24:19.156Z,94.34
2023-04-17T08:25:04.030Z,94.52
2023-04-17T08:25:44.063Z,94.17
2023-04-17T08:26:26.956Z,94.37
2023-04-17T08:27:07.790Z,94.24
2023-04-17T08:27:50.047Z,93.66
2023-04-17T08:28:31.294Z,93.62
2023-04-17T08:29:11.138Z,93.61
2023-04-17T08:29:53.539Z,93.61
2023-04-17T08:30:34.014Z,94.21
2023-04-17T08:31:14.175Z,93.71
2023-04-17T08:32:10.429Z,93.65
2023-04-17T08:33:04.117Z,93.74
2023-04-17T08:33:37.712Z,93.69